createdAt,value
2018-08-06T00:00:22.594Z,1.60
2018-08-06T00:02:51.206Z,1.90
2018-08-06T00:05:19.976Z,1.95
2018-08-06T00:07:48.644Z,1.70
2018-08-06T00:10:19.846Z,1.80
2018-08-06T00:12:48.400Z,2.40
2018-08-06T00:15:17.118Z,1.90
2018-08-06T00:17:45.745Z,1.75
2018-08-06T00:20:14.992Z,1.98
2018-08-06T00:22:43.788Z,2.40
2018-08-06T00:25:13.614Z,2.00
2018-08-06T00:27:42.705Z,2.00
2018-08-06T00:30:12.862Z,2.45
2018-08-06T00:32:42.328Z,2.12
2018-08-06T00:35:11.548Z,2.00
2018-08-06T00:37:40.451Z,2.20
2018-08-06T00:40:11.934Z,1.72
2018-08-06T00:42:40.982Z,2.15
2018-08-06T00:45:11.552Z,2.08
2018-08-06T00:47:40.139Z,1.80
2018-08-06T00:50:09.121Z,2.05
2018-08-06T00:52:38.002Z,2.10
2018-08-06T00:55:08.720Z,1.70
2018-08-06T00:57:37.259Z,1.92
2018-08-06T01:00:08.250Z,2.00
2018-08-06T01:02:36.819Z,2.12
2018-08-06T01:05:06.565Z,1.92
2018-08-06T01:07:35.103Z,2.10
2018-08-06T01:10:05.228Z,2.02
2018-08-06T01:12:33.847Z,2.25
2018-08-06T01:15:02.424Z,1.98
2018-08-06T01:17:30.931Z,1.98
2018-08-06T01:19:59.498Z,2.05
2018-08-06T01:22:28.080Z,2.52
2018-08-06T01:24:56.883Z,2.10
2018-08-06T01:27:25.437Z,2.50
2018-08-06T01:29:54.002Z,2.00
2018-08-06T01:32:22.540Z,2.20
2018-08-06T01:34:51.096Z,1.98
2018-08-06T01:37:19.676Z,1.95
2018-08-06T01:39:48.202Z,2.50
2018-08-06T01:42:16.740Z,2.22
2018-08-06T01:44:45.271Z,2.20
2018-08-06T01:47:13.780Z,2.27
2018-08-06T01:49:42.315Z,2.52
2018-08-06T01:52:10.840Z,2.20
2018-08-06T01:54:39.407Z,2.10
2018-08-06T01:57:07.917Z,2.10
2018-08-06T01:59:36.457Z,2.02
2018-08-06T02:02:05.567Z,2.22
2018-08-06T02:04:34.132Z,2.50
2018-08-06T02:07:02.662Z,2.30
2018-08-06T02:09:31.242Z,2.05
2018-08-06T02:11:59.792Z,2.33
2018-08-06T02:14:28.334Z,1.80
2018-08-06T02:16:56.935Z,2.30
2018-08-06T02:19:25.551Z,2.55
2018-08-06T02:21:54.117Z,1.72
2018-08-06T02:24:22.652Z,2.12
2018-08-06T02:26:51.256Z,2.22
2018-08-06T02:29:19.810Z,2.22
2018-08-06T02:31:48.349Z,2.12
2018-08-06T02:34:16.904Z,2.15
2018-08-06T02:36:45.464Z,2.27
2018-08-06T02:39:14.000Z,2.30
2018-08-06T02:41:42.566Z,2.25
2018-08-06T02:44:11.080Z,2.70
2018-08-06T02:46:39.572Z,2.20
2018-08-06T02:49:08.138Z,2.50
2018-08-06T02:51:36.711Z,2.87
2018-08-06T02:54:05.349Z,2.72
2018-08-06T02:56:33.875Z,2.60
2018-08-06T02:59:02.470Z,2.10
2018-08-06T03:01:30.988Z,2.47
2018-08-06T03:03:59.524Z,2.33
2018-08-06T03:06:28.056Z,2.30
2018-08-06T03:08:56.611Z,2.40
2018-08-06T03:11:25.169Z,2.40
2018-08-06T03:13:53.696Z,2.40
2018-08-06T03:16:22.258Z,2.60
2018-08-06T03:18:50.837Z,2.00
2018-08-06T03:21:19.390Z,2.50
2018-08-06T03:23:47.903Z,2.50
2018-08-06T03:26:16.414Z,2.02
2018-08-06T03:28:44.940Z,2.75
2018-08-06T03:31:13.452Z,2.55
2018-08-06T03:33:41.988Z,2.40
2018-08-06T03:36:10.519Z,2.30
2018-08-06T03:38:39.082Z,2.33
2018-08-06T03:41:07.645Z,2.67
2018-08-06T03:43:36.240Z,2.30
2018-08-06T03:46:04.774Z,2.05
2018-08-06T03:48:33.306Z,2.80
2018-08-06T03:51:01.811Z,2.40
2018-08-06T03:53:30.358Z,3.75
2018-08-06T03:55:58.881Z,2.25
2018-08-06T03:58:27.422Z,2.30
2018-08-06T04:00:55.965Z,2.40
2018-08-06T04:03:24.474Z,2.40
2018-08-06T04:05:52.982Z,2.20
2018-08-06T04:08:21.571Z,2.00
2018-08-06T04:10:50.134Z,2.45
2018-08-06T04:13:18.692Z,2.40
2018-08-06T04:15:47.207Z,2.12
2018-08-06T04:18:15.763Z,2.15
2018-08-06T04:20:44.291Z,2.30
2018-08-06T04:23:12.794Z,2.50
2018-08-06T04:25:41.296Z,2.67
2018-08-06T04:28:09.904Z,2.02
2018-08-06T04:30:38.475Z,2.50
2018-08-06T04:33:07.053Z,2.20
2018-08-06T04:35:35.548Z,2.90
2018-08-06T04:38:04.112Z,3.20
2018-08-06T04:40:32.612Z,2.45
2018-08-06T04:43:01.124Z,2.70
2018-08-06T04:45:29.643Z,2.60
2018-08-06T04:47:58.199Z,2.50
2018-08-06T04:50:26.703Z,2.50
2018-08-06T04:52:55.233Z,2.35
2018-08-06T04:55:23.752Z,2.30
2018-08-06T04:57:52.262Z,2.70
2018-08-06T05:00:20.810Z,2.58
2018-08-06T05:02:49.389Z,3.00
2018-08-06T05:05:17.924Z,2.62
2018-08-06T05:07:46.403Z,2.62
2018-08-06T05:10:14.907Z,3.00
2018-08-06T05:12:43.469Z,2.17
2018-08-06T05:15:12.026Z,2.80
2018-08-06T05:17:40.558Z,2.67
2018-08-06T05:20:09.131Z,2.00
2018-08-06T05:22:37.695Z,2.60
2018-08-06T05:25:06.321Z,2.10
2018-08-06T05:27:34.863Z,1.98
2018-08-06T05:30:03.452Z,2.20
2018-08-06T05:32:31.980Z,1.85
2018-08-06T05:35:00.549Z,2.50
2018-08-06T05:37:29.110Z,2.10
2018-08-06T05:39:57.700Z,2.00
2018-08-06T05:42:26.246Z,2.60
2018-08-06T05:44:54.781Z,2.05
2018-08-06T05:47:23.326Z,2.10
2018-08-06T05:49:51.838Z,1.70
2018-08-06T05:52:20.379Z,1.65
2018-08-06T05:54:48.901Z,2.40
2018-08-06T05:57:17.464Z,1.67
2018-08-06T05:59:46.054Z,1.72
2018-08-06T06:02:14.658Z,1.52
2018-08-06T06:04:43.247Z,2.15
2018-08-06T06:07:11.771Z,1.75
2018-08-06T06:09:40.309Z,1.45
2018-08-06T06:12:08.914Z,1.67
2018-08-06T06:14:37.489Z,1.52
2018-08-06T06:17:06.038Z,1.27
2018-08-06T06:19:34.569Z,1.20
2018-08-06T06:22:03.099Z,1.20
2018-08-06T06:24:31.622Z,1.40
2018-08-06T06:27:00.155Z,1.40
2018-08-06T06:29:28.698Z,1.37
2018-08-06T06:31:57.254Z,1.20
2018-08-06T06:34:25.853Z,1.40
2018-08-06T06:36:54.410Z,1.20
2018-08-06T06:39:22.933Z,1.47
2018-08-06T06:41:51.525Z,1.10
2018-08-06T06:44:20.012Z,1.40
2018-08-06T06:46:48.519Z,1.33
2018-08-06T06:49:17.110Z,1.00
2018-08-06T06:51:45.640Z,1.10
2018-08-06T06:54:14.138Z,1.20
2018-08-06T06:56:42.691Z,1.00
2018-08-06T06:59:11.248Z,1.40
2018-08-06T07:01:39.762Z,1.20
2018-08-06T07:04:08.337Z,1.00
2018-08-06T07:06:36.882Z,1.00
2018-08-06T07:09:08.247Z,1.20
2018-08-06T07:11:36.931Z,1.00
2018-08-06T07:14:05.802Z,1.10
2018-08-06T07:16:34.338Z,1.03
2018-08-06T07:19:02.960Z,1.00
2018-08-06T07:21:31.605Z,1.00
2018-08-06T07:24:00.189Z,1.20
2018-08-06T07:26:28.687Z,0.90
2018-08-06T07:28:57.262Z,1.00
2018-08-06T07:31:25.776Z,1.00
2018-08-06T07:33:54.309Z,0.87
2018-08-06T07:36:22.826Z,1.13
2018-08-06T07:38:51.556Z,0.93
2018-08-06T07:41:20.125Z,0.90
2018-08-06T07:43:48.698Z,0.97
2018-08-06T07:46:17.283Z,0.97
2018-08-06T07:48:45.864Z,0.90
2018-08-06T07:51:14.444Z,0.87
2018-08-06T07:53:42.994Z,0.70
2018-08-06T07:56:11.588Z,0.90
2018-08-06T07:58:40.187Z,1.07
2018-08-06T08:01:08.772Z,0.80
2018-08-06T08:03:37.372Z,0.83
2018-08-06T08:06:05.993Z,1.10
2018-08-06T08:08:34.517Z,1.10
2018-08-06T08:11:03.087Z,1.00
2018-08-06T08:13:31.674Z,1.13
2018-08-06T08:16:00.257Z,0.80
2018-08-06T08:18:28.825Z,1.07
2018-08-06T08:20:57.463Z,1.10
2018-08-06T08:23:26.016Z,0.90
2018-08-06T08:25:54.604Z,1.10
2018-08-06T08:28:23.207Z,1.00
2018-08-06T08:30:52.618Z,1.30
2018-08-06T08:33:21.199Z,1.00
2018-08-06T08:35:49.735Z,0.90
2018-08-06T08:38:18.328Z,1.30
2018-08-06T08:40:46.857Z,1.00
2018-08-06T08:43:15.427Z,1.00
2018-08-06T08:45:43.971Z,1.13
2018-08-06T08:48:12.526Z,1.13
2018-08-06T08:50:41.072Z,1.20
2018-08-06T08:53:09.632Z,1.10
2018-08-06T08:55:38.276Z,1.00
2018-08-06T08:58:06.917Z,1.10
2018-08-06T09:00:35.520Z,1.17
2018-08-06T09:03:04.072Z,1.30
2018-08-06T09:05:32.827Z,1.30
2018-08-06T09:08:01.475Z,1.27
2018-08-06T09:10:30.047Z,1.00
2018-08-06T09:12:58.583Z,1.10
2018-08-06T09:15:28.063Z,1.13
2018-08-06T09:17:56.641Z,1.00
2018-08-06T09:20:26.668Z,0.90
2018-08-06T09:22:55.220Z,1.30
2018-08-06T09:25:23.782Z,1.40
2018-08-06T09:27:52.711Z,1.17
2018-08-06T09:30:22.557Z,1.20
2018-08-06T09:32:52.708Z,1.10
2018-08-06T09:35:21.509Z,1.10
2018-08-06T09:37:50.621Z,1.17
2018-08-06T09:40:20.365Z,1.00
2018-08-06T09:42:49.738Z,0.90
2018-08-06T09:45:19.806Z,1.00
2018-08-06T09:47:49.563Z,1.10
2018-08-06T09:50:18.979Z,1.17
2018-08-06T09:52:48.680Z,1.20
2018-08-06T09:55:20.598Z,1.03
2018-08-06T09:57:49.796Z,1.20
2018-08-06T10:00:25.008Z,1.50
2018-08-06T10:02:54.407Z,1.53
2018-08-06T10:05:24.157Z,0.97
2018-08-06T10:07:53.087Z,1.00
2018-08-06T10:10:21.738Z,1.10
2018-08-06T10:12:50.766Z,1.40
2018-08-06T10:15:20.017Z,1.20
2018-08-06T10:17:50.305Z,1.00
2018-08-06T10:20:20.235Z,1.10
2018-08-06T10:22:48.872Z,1.10
2018-08-06T10:25:17.506Z,1.20
2018-08-06T10:27:46.734Z,1.10
2018-08-06T10:30:22.638Z,1.10
2018-08-06T10:32:51.159Z,1.20
2018-08-06T10:35:20.298Z,1.10
2018-08-06T10:37:48.871Z,1.17
2018-08-06T10:40:20.687Z,1.30
2018-08-06T10:42:49.386Z,1.03
2018-08-06T10:45:19.115Z,1.10
2018-08-06T10:47:47.996Z,1.13
2018-08-06T10:50:16.513Z,1.13
2018-08-06T10:52:45.064Z,1.23
2018-08-06T10:55:14.226Z,1.20
2018-08-06T10:57:44.005Z,1.30
2018-08-06T11:00:20.589Z,1.33
2018-08-06T11:02:49.413Z,1.10
2018-08-06T11:05:18.540Z,1.20
2018-08-06T11:07:47.127Z,0.90
2018-08-06T11:10:23.370Z,1.00
2018-08-06T11:12:51.961Z,1.20
2018-08-06T11:15:24.606Z,0.97
2018-08-06T11:17:53.245Z,1.20
2018-08-06T11:20:22.277Z,1.10
2018-08-06T11:22:50.856Z,1.03
2018-08-06T11:25:21.078Z,1.20
2018-08-06T11:27:49.951Z,1.20
2018-08-06T11:30:20.098Z,1.20
2018-08-06T11:32:49.266Z,0.93
2018-08-06T11:35:18.114Z,1.07
2018-08-06T11:37:46.694Z,1.33
2018-08-06T11:40:16.291Z,0.97
2018-08-06T11:42:45.739Z,1.03
2018-08-06T11:45:16.853Z,1.00
2018-08-06T11:47:45.472Z,0.90
2018-08-06T11:50:14.025Z,1.20
2018-08-06T11:52:42.561Z,0.93
2018-08-06T11:55:11.403Z,0.90
2018-08-06T11:57:39.934Z,1.00
2018-08-06T12:00:14.724Z,1.07
2018-08-06T12:02:43.304Z,0.80
2018-08-06T12:05:11.987Z,0.97
2018-08-06T12:07:40.497Z,0.93
2018-08-06T12:10:12.138Z,1.00
2018-08-06T12:12:41.175Z,1.10
2018-08-06T12:15:10.393Z,0.80
2018-08-06T12:17:39.750Z,0.90
2018-08-06T12:20:15.267Z,0.90
2018-08-06T12:22:45.206Z,1.13
2018-08-06T12:25:14.737Z,1.00
2018-08-06T12:27:44.078Z,1.10
2018-08-06T12:30:15.562Z,1.17
2018-08-06T12:32:44.871Z,1.00
2018-08-06T12:35:13.769Z,1.10
2018-08-06T12:37:42.344Z,1.53
2018-08-06T12:40:13.434Z,1.00
2018-08-06T12:42:42.400Z,0.93
2018-08-06T12:45:12.117Z,0.90
2018-08-06T12:47:41.104Z,1.43
2018-08-06T12:50:11.022Z,1.20
2018-08-06T12:52:40.413Z,0.90
2018-08-06T12:55:10.751Z,1.07
2018-08-06T12:57:39.982Z,0.90
2018-08-06T13:00:13.254Z,1.10
2018-08-06T13:02:41.754Z,1.30
2018-08-06T13:05:10.569Z,1.30
2018-08-06T13:07:39.135Z,1.17
2018-08-06T13:10:08.025Z,1.10
2018-08-06T13:12:38.001Z,0.90
2018-08-06T13:15:07.526Z,0.90
2018-08-06T13:17:36.142Z,1.20
2018-08-06T13:20:05.913Z,1.17
2018-08-06T13:22:34.608Z,1.00
2018-08-06T13:25:03.216Z,1.00
2018-08-06T13:27:32.274Z,1.10
2018-08-06T13:30:00.784Z,1.10
2018-08-06T13:32:29.331Z,1.50
2018-08-06T13:34:57.859Z,0.90
2018-08-06T13:37:26.393Z,1.10
2018-08-06T13:39:55.038Z,1.13
2018-08-06T13:42:23.570Z,1.23
2018-08-06T13:44:52.102Z,1.00
2018-08-06T13:47:20.618Z,1.10
2018-08-06T13:49:49.134Z,1.20
2018-08-06T13:52:17.668Z,1.00
2018-08-06T13:54:46.213Z,0.97
2018-08-06T13:57:14.772Z,1.00
2018-08-06T13:59:43.392Z,0.90
2018-08-06T14:02:12.010Z,1.00
2018-08-06T14:04:40.565Z,1.10
2018-08-06T14:07:09.145Z,1.10
2018-08-06T14:09:37.767Z,0.93
2018-08-06T14:12:06.313Z,1.17
2018-08-06T14:14:34.871Z,1.10
2018-08-06T14:17:03.471Z,0.90
2018-08-06T14:19:32.038Z,1.20
2018-08-06T14:22:00.621Z,0.90
2018-08-06T14:24:29.153Z,1.10
2018-08-06T14:26:57.753Z,1.00
2018-08-06T14:29:26.274Z,1.07
2018-08-06T14:31:54.837Z,1.00
2018-08-06T14:34:23.444Z,0.90
2018-08-06T14:36:51.989Z,1.10
2018-08-06T14:39:20.538Z,1.00
2018-08-06T14:41:49.103Z,1.10
2018-08-06T14:44:17.627Z,1.10
2018-08-06T14:46:46.155Z,1.00
2018-08-06T14:49:14.651Z,1.10
2018-08-06T14:51:43.262Z,0.97
2018-08-06T14:54:11.793Z,0.97
2018-08-06T14:56:40.319Z,1.20
2018-08-06T14:59:08.850Z,0.90
2018-08-06T15:01:37.433Z,1.20
2018-08-06T15:04:06.030Z,1.00
2018-08-06T15:06:34.578Z,1.20
2018-08-06T15:09:03.466Z,1.10
2018-08-06T15:11:32.023Z,1.00
2018-08-06T15:14:00.589Z,1.07
2018-08-06T15:16:29.108Z,0.90
2018-08-06T15:18:57.733Z,0.80
2018-08-06T15:21:26.312Z,0.80
2018-08-06T15:23:54.844Z,0.90
2018-08-06T15:26:23.411Z,1.10
2018-08-06T15:28:51.912Z,1.00
2018-08-06T15:31:20.564Z,0.80
2018-08-06T15:33:49.198Z,0.90
2018-08-06T15:36:17.721Z,0.90
2018-08-06T15:38:46.299Z,1.40
2018-08-06T15:41:14.839Z,0.80
2018-08-06T15:43:43.414Z,0.90
2018-08-06T15:46:11.931Z,0.90
2018-08-06T15:48:40.431Z,1.20
2018-08-06T15:51:08.750Z,0.90
2018-08-06T15:53:37.267Z,1.00
2018-08-06T15:56:06.163Z,1.40
2018-08-06T15:58:34.704Z,0.80
2018-08-06T16:01:03.261Z,0.80
2018-08-06T16:03:31.896Z,1.00
2018-08-06T16:06:00.455Z,0.93
2018-08-06T16:08:28.974Z,0.90
2018-08-06T16:10:57.511Z,0.80
2018-08-06T16:13:26.042Z,0.90
2018-08-06T16:15:54.645Z,0.80
2018-08-06T16:18:23.293Z,1.10
2018-08-06T16:20:51.839Z,0.97
2018-08-06T16:23:20.435Z,0.90
2018-08-06T16:25:48.942Z,1.00
2018-08-06T16:28:17.497Z,0.80
2018-08-06T16:30:46.071Z,0.90
2018-08-06T16:33:14.670Z,0.80
2018-08-06T16:35:43.214Z,1.00
2018-08-06T16:38:11.864Z,0.80
2018-08-06T16:40:40.422Z,0.90
2018-08-06T16:43:09.392Z,1.00
2018-08-06T16:45:38.001Z,0.90
2018-08-06T16:48:06.591Z,0.93
2018-08-06T16:50:35.171Z,1.00
2018-08-06T16:53:03.777Z,0.97
2018-08-06T16:55:32.352Z,1.00
2018-08-06T16:58:00.924Z,1.00
2018-08-06T17:00:29.436Z,1.00
2018-08-06T17:02:58.186Z,1.03
2018-08-06T17:05:26.862Z,0.97
2018-08-06T17:07:56.333Z,0.80
2018-08-06T17:10:24.847Z,1.00
2018-08-06T17:12:54.306Z,0.80
2018-08-06T17:15:23.224Z,0.80
2018-08-06T17:17:54.259Z,0.80
2018-08-06T17:20:24.891Z,0.80
2018-08-06T17:22:53.695Z,1.07
2018-08-06T17:25:22.408Z,0.90
2018-08-06T17:27:50.963Z,0.80
2018-08-06T17:30:19.592Z,0.80
2018-08-06T17:32:48.198Z,0.90
2018-08-06T17:35:17.281Z,0.90
2018-08-06T17:37:45.950Z,1.00
2018-08-06T17:40:16.697Z,1.10
2018-08-06T17:42:45.250Z,1.00
2018-08-06T17:45:16.504Z,1.00
2018-08-06T17:47:45.116Z,0.90
2018-08-06T17:50:16.248Z,1.10
2018-08-06T17:52:45.859Z,1.20
2018-08-06T17:55:15.102Z,1.27
2018-08-06T17:57:43.752Z,1.30
2018-08-06T18:00:12.877Z,1.20
2018-08-06T18:02:41.479Z,0.97
2018-08-06T18:05:12.330Z,1.10
2018-08-06T18:07:41.456Z,1.00
2018-08-06T18:10:11.849Z,1.33
2018-08-06T18:12:40.415Z,1.20
2018-08-06T18:15:09.008Z,1.20
2018-08-06T18:17:38.187Z,1.10
2018-08-06T18:20:11.446Z,1.20
2018-08-06T18:22:40.100Z,1.10
2018-08-06T18:25:10.603Z,1.57
2018-08-06T18:27:39.315Z,1.43
2018-08-06T18:30:10.817Z,3.00
2018-08-06T18:32:39.558Z,1.63
2018-08-06T18:35:09.332Z,1.20
2018-08-06T18:37:37.894Z,1.10
2018-08-06T18:40:07.228Z,1.33
2018-08-06T18:42:35.798Z,1.10
2018-08-06T18:45:06.042Z,1.13
2018-08-06T18:47:34.580Z,1.10
2018-08-06T18:50:03.218Z,1.10
2018-08-06T18:52:31.998Z,1.03
2018-08-06T18:55:00.622Z,1.10
2018-08-06T18:57:29.199Z,1.30
2018-08-06T18:59:57.778Z,1.20
2018-08-06T19:02:26.342Z,1.17
2018-08-06T19:04:54.964Z,1.17
2018-08-06T19:07:23.569Z,2.07
2018-08-06T19:09:52.160Z,11.50
2018-08-06T19:12:26.116Z,8.93
2018-08-06T19:14:54.744Z,5.80
2018-08-06T19:17:22.948Z,2.40
2018-08-06T19:19:51.521Z,2.70
2018-08-06T19:22:20.192Z,2.73
2018-08-06T19:24:53.948Z,2.60
2018-08-06T19:27:22.622Z,15.00
2018-08-06T19:29:51.154Z,26.10
2018-08-06T19:32:19.776Z,22.03
2018-08-06T19:34:48.400Z,14.30
2018-08-06T19:37:22.432Z,8.67
2018-08-06T19:39:51.184Z,4.90
2018-08-06T19:42:19.732Z,3.30
2018-08-06T19:44:48.284Z,3.00
2018-08-06T19:47:16.823Z,3.07
2018-08-06T19:49:50.796Z,2.60
2018-08-06T19:52:19.316Z,3.57
2018-08-06T19:54:47.888Z,4.00
2018-08-06T19:57:16.421Z,6.27
2018-08-06T19:59:44.973Z,4.13
2018-08-06T20:02:13.522Z,3.57
2018-08-06T20:04:42.831Z,2.90
2018-08-06T20:07:11.427Z,2.90
2018-08-06T20:09:40.034Z,3.10
2018-08-06T20:12:08.609Z,2.67
2018-08-06T20:14:37.164Z,2.60
2018-08-06T20:17:06.220Z,3.27
2018-08-06T20:19:34.754Z,2.97
2018-08-06T20:22:03.324Z,2.40
2018-08-06T20:24:31.985Z,3.53
2018-08-06T20:27:00.514Z,2.30
2018-08-06T20:29:28.986Z,2.17
2018-08-06T20:31:57.521Z,1.80
2018-08-06T20:34:26.092Z,1.93
2018-08-06T20:36:54.633Z,1.80
2018-08-06T20:39:23.212Z,1.70
2018-08-06T20:41:51.777Z,1.70
2018-08-06T20:44:20.318Z,1.70
2018-08-06T20:46:48.864Z,1.50
2018-08-06T20:49:17.414Z,1.90
2018-08-06T20:51:46.008Z,1.70
2018-08-06T20:54:14.594Z,1.23
2018-08-06T20:56:43.297Z,1.40
2018-08-06T20:59:11.914Z,1.43
2018-08-06T21:01:40.493Z,1.40
2018-08-06T21:04:09.056Z,1.37
2018-08-06T21:06:37.738Z,1.70
2018-08-06T21:09:08.751Z,1.40
2018-08-06T21:11:37.312Z,1.53
2018-08-06T21:14:05.985Z,1.50
2018-08-06T21:16:34.594Z,1.20
2018-08-06T21:19:03.178Z,1.40
2018-08-06T21:21:31.752Z,1.50
2018-08-06T21:24:00.346Z,1.60
2018-08-06T21:26:28.998Z,1.57
2018-08-06T21:28:57.555Z,1.37
2018-08-06T21:31:26.176Z,1.57
2018-08-06T21:33:54.891Z,1.43
2018-08-06T21:36:23.512Z,1.83
2018-08-06T21:38:52.073Z,1.70
2018-08-06T21:41:25.287Z,1.40
2018-08-06T21:43:53.922Z,1.67
2018-08-06T21:46:22.602Z,1.73
2018-08-06T21:48:51.439Z,2.00
2018-08-06T21:51:20.003Z,1.53
2018-08-06T21:53:48.565Z,1.60
2018-08-06T21:56:17.141Z,1.60
2018-08-06T21:58:45.766Z,1.63
2018-08-06T22:01:14.350Z,1.37
2018-08-06T22:03:42.631Z,1.90
2018-08-06T22:06:11.255Z,1.60
2018-08-06T22:08:39.837Z,1.33
2018-08-06T22:11:08.535Z,1.87
2018-08-06T22:13:37.100Z,1.40
2018-08-06T22:16:06.027Z,1.70
2018-08-06T22:18:34.565Z,1.70
2018-08-06T22:21:03.239Z,1.50
2018-08-06T22:23:31.808Z,1.50
2018-08-06T22:26:00.406Z,1.47
2018-08-06T22:28:28.965Z,1.77
2018-08-06T22:30:57.610Z,1.83
2018-08-06T22:33:26.219Z,1.60
2018-08-06T22:35:54.832Z,1.30
2018-08-06T22:38:23.390Z,1.73
2018-08-06T22:40:51.985Z,1.43
2018-08-06T22:43:20.582Z,1.40
2018-08-06T22:45:49.132Z,1.50
2018-08-06T22:48:18.786Z,1.37
2018-08-06T22:50:47.384Z,1.70
2018-08-06T22:53:15.934Z,1.50
2018-08-06T22:55:55.767Z,1.63
2018-08-06T22:58:24.330Z,1.80
2018-08-06T23:00:52.897Z,1.57
2018-08-06T23:03:21.488Z,1.83
2018-08-06T23:05:50.129Z,1.63
2018-08-06T23:08:18.713Z,1.70
2018-08-06T23:10:47.325Z,1.80
2018-08-06T23:13:15.904Z,1.80
2018-08-06T23:15:44.463Z,1.60
2018-08-06T23:18:13.015Z,1.60
2018-08-06T23:20:41.591Z,1.90
2018-08-06T23:23:10.184Z,1.80
2018-08-06T23:25:38.754Z,1.60
2018-08-06T23:28:07.392Z,1.43
2018-08-06T23:30:35.986Z,2.20
2018-08-06T23:33:04.616Z,1.47
2018-08-06T23:35:33.234Z,1.53
2018-08-06T23:38:01.832Z,1.60
2018-08-06T23:40:30.410Z,2.20
2018-08-06T23:42:58.997Z,1.67
2018-08-06T23:45:27.580Z,2.03
2018-08-06T23:47:56.222Z,1.80
2018-08-06T23:50:24.809Z,1.80
2018-08-06T23:52:53.468Z,1.80
2018-08-06T23:55:22.025Z,1.80
2018-08-06T23:57:50.637Z,1.80
